sensor_id;sensor_type;location;lat;lon;timestamp;pressure;altitude;pressure_sealevel;temperature;humidity
18436;BME280;9346;52.006;4.720;2023-04-24T00:00:55;99826.38;;;11.04;100.00
18436;BME280;9346;52.006;4.720;2023-04-24T00:03:24;99822.50;;;11.05;100.00
18436;BME280;9346;52.006;4.720;2023-04-24T00:05:53;99831.66;;;11.01;100.00
18436;BME280;9346;52.006;4.720;2023-04-24T00:08:20;99834.41;;;11.01;100.00
18436;BME280;9346;52.006;4.720;2023-04-24T00:10:47;99832.19;;;11.03;100.00
18436;BME280;9346;52.006;4.720;2023-04-24T00:13:14;99834.66;;;11.04;100.00
18436;BME280;9346;52.006;4.720;2023-04-24T00:15:42;99831.59;;;11.06;100.00
18436;BME280;9346;52.006;4.720;2023-04-24T00:18:10;99831.28;;;11.07;100.00
18436;BME280;9346;52.006;4.720;2023-04-24T00:20:37;99832.09;;;11.08;100.00
18436;BME280;9346;52.006;4.720;2023-04-24T00:23:05;99836.50;;;11.09;100.00
18436;BME280;9346;52.006;4.720;2023-04-24T00:25:32;99828.44;;;11.12;100.00
18436;BME280;9346;52.006;4.720;2023-04-24T00:27:59;99838.03;;;11.15;100.00
18436;BME280;9346;52.006;4.720;2023-04-24T00:30:26;99834.16;;;11.16;100.00
18436;BME280;9346;52.006;4.720;2023-04-24T00:32:52;99825.91;;;11.16;100.00
18436;BME280;9346;52.006;4.720;2023-04-24T00:35:21;99826.41;;;11.18;100.00
18436;BME280;9346;52.006;4.720;2023-04-24T00:37:48;99820.88;;;11.18;100.00
18436;BME280;9346;52.006;4.720;2023-04-24T00:40:15;99825.59;;;11.17;100.00
18436;BME280;9346;52.006;4.720;2023-04-24T00:42:43;99824.78;;;11.17;100.00
18436;BME280;9346;52.006;4.720;2023-04-24T00:45:11;99829.75;;;11.15;100.00
18436;BME280;9346;52.006;4.720;2023-04-24T00:47:38;99825.38;;;11.14;100.00
18436;BME280;9346;52.006;4.720;2023-04-24T00:50:07;99829.75;;;11.15;100.00
18436;BME280;9346;52.006;4.720;2023-04-24T00:52:35;99832.84;;;11.13;100.00
18436;BME280;9346;52.006;4.720;2023-04-24T00:55:03;99830.88;;;11.14;100.00
18436;BME280;9346;52.006;4.720;2023-04-24T00:57:30;99833.66;;;11.14;100.00
18436;BME280;9346;52.006;4.720;2023-04-24T00:59:57;99836.09;;;11.15;100.00
18436;BME280;9346;52.006;4.720;2023-04-24T01:02:25;99832.84;;;11.13;100.00
18436;BME280;9346;52.006;4.720;2023-04-24T01:04:52;99837.31;;;11.09;100.00
18436;BME280;9346;52.006;4.720;2023-04-24T01:07:20;99829.34;;;11.08;100.00
18436;BME280;9346;52.006;4.720;2023-04-24T01:09:50;99833.22;;;11.07;100.00
18436;BME280;9346;52.006;4.720;2023-04-24T01:12:17;99829.13;;;11.04;100.00
18436;BME280;9346;52.006;4.720;2023-04-24T01:14:44;99825.56;;;11.04;100.00
18436;BME280;9346;52.006;4.720;2023-04-24T01:17:11;99831.06;;;11.04;100.00
18436;BME280;9346;52.006;4.720;2023-04-24T01:19:38;99826.38;;;11.04;100.00
18436;BME280;9346;52.006;4.720;2023-04-24T01:22:10;99828.31;;;11.04;100.00
18436;BME280;9346;52.006;4.720;2023-04-24T01:24:38;99833.00;;;11.03;100.00
18436;BME280;9346;52.006;4.720;2023-04-24T01:27:05;99831.59;;;11.06;100.00
18436;BME280;9346;52.006;4.720;2023-04-24T01:29:33;99839.84;;;11.06;100.00
18436;BME280;9346;52.006;4.720;2023-04-24T01:32:00;99832.69;;;11.05;100.00
18436;BME280;9346;52.006;4.720;2023-04-24T01:34:27;99831.06;;;11.04;100.00
18436;BME280;9346;52.006;4.720;2023-04-24T01:36:54;99833.81;;;11.04;100.00
18436;BME280;9346;52.006;4.720;2023-04-24T01:39:23;99831.91;;;11.04;100.00
18436;BME280;9346;52.006;4.720;2023-04-24T01:41:51;99831.91;;;11.04;100.00
18436;BME280;9346;52.006;4.720;2023-04-24T01:44:18;99834.66;;;11.04;100.00
18436;BME280;9346;52.006;4.720;2023-04-24T01:46:45;99839.84;;;11.06;100.00
18436;BME280;9346;52.006;4.720;2023-04-24T01:49:12;99833.22;;;11.07;100.00
18436;BME280;9346;52.006;4.720;2023-04-24T01:51:40;99828.00;;;11.05;100.00
18436;BME280;9346;52.006;4.720;2023-04-24T01:54:07;99823.94;;;11.03;100.00
18436;BME280;9346;52.006;4.720;2023-04-24T01:56:36;99828.91;;;11.01;100.00
18436;BME280;9346;52.006;4.720;2023-04-24T01:59:07;99825.31;;;11.00;100.00
18436;BME280;9346;52.006;4.720;2023-04-24T02:01:36;99835.56;;;11.00;100.00
18436;BME280;9346;52.006;4.720;2023-04-24T02:04:03;99829.22;;;10.99;100.00
18436;BME280;9346;52.006;4.720;2023-04-24T02:06:30;99824.00;;;10.98;100.00
18436;BME280;9346;52.006;4.720;2023-04-24T02:08:58;99821.53;;;10.96;100.00
18436;BME280;9346;52.006;4.720;2023-04-24T02:11:25;99823.19;;;10.97;100.00
18436;BME280;9346;52.006;4.720;2023-04-24T02:13:54;99822.38;;;10.97;100.00
18436;BME280;9346;52.006;4.720;2023-04-24T02:16:21;99821.25;;;10.98;100.00
18436;BME280;9346;52.006;4.720;2023-04-24T02:18:47;99827.59;;;10.98;100.00
18436;BME280;9346;52.006;4.720;2023-04-24T02:21:14;99830.34;;;10.98;100.00
18436;BME280;9346;52.006;4.720;2023-04-24T02:23:41;99825.13;;;10.97;100.00
18436;BME280;9346;52.006;4.720;2023-04-24T02:26:09;99825.44;;;10.95;100.00
18436;BME280;9346;52.006;4.720;2023-04-24T02:28:36;99831.25;;;10.94;100.00
18436;BME280;9346;52.006;4.720;2023-04-24T02:31:04;99829.31;;;10.94;100.00
18436;BME280;9346;52.006;4.720;2023-04-24T02:33:31;99823.81;;;10.94;100.00
18436;BME280;9346;52.006;4.720;2023-04-24T02:35:58;99833.41;;;10.97;100.00
18436;BME280;9346;52.006;4.720;2023-04-24T02:38:26;99819.31;;;10.98;100.00
18436;BME280;9346;52.006;4.720;2023-04-24T02:40:52;99828.72;;;10.97;100.00
18436;BME280;9346;52.006;4.720;2023-04-24T02:43:20;99826.25;;;10.96;100.00
18436;BME280;9346;52.006;4.720;2023-04-24T02:45:46;99829.31;;;10.94;100.00
18436;BME280;9346;52.006;4.720;2023-04-24T02:48:16;99827.66;;;10.93;100.00
18436;BME280;9346;52.006;4.720;2023-04-24T02:50:43;99829.63;;;10.93;100.00
18436;BME280;9346;52.006;4.720;2023-04-24T02:53:11;99827.94;;;10.92;100.00
18436;BME280;9346;52.006;4.720;2023-04-24T02:55:38;99823.56;;;10.91;100.00
18436;BME280;9346;52.006;4.720;2023-04-24T02:58:05;99822.75;;;10.90;100.00
18436;BME280;9346;52.006;4.720;2023-04-24T03:00:32;99812.31;;;10.87;100.00
18436;BME280;9346;52.006;4.720;2023-04-24T03:02:59;99816.19;;;10.86;100.00
18436;BME280;9346;52.006;4.720;2023-04-24T03:05:28;99809.88;;;10.86;100.00
18436;BME280;9346;52.006;4.720;2023-04-24T03:07:56;99813.75;;;10.85;100.00
18436;BME280;9346;52.006;4.720;2023-04-24T03:10:23;99817.63;;;10.84;100.00
18436;BME280;9346;52.006;4.720;2023-04-24T03:12:53;99829.47;;;10.84;100.00
18436;BME280;9346;52.006;4.720;2023-04-24T03:15:21;99820.69;;;10.82;100.00
18436;BME280;9346;52.006;4.720;2023-04-24T03:17:48;99820.75;;;10.77;100.00
18436;BME280;9346;52.006;4.720;2023-04-24T03:20:15;99822.72;;;10.77;100.00
18436;BME280;9346;52.006;4.720;2023-04-24T03:22:43;99823.91;;;10.71;100.00
18436;BME280;9346;52.006;4.720;2023-04-24T03:25:10;99823.47;;;10.64;100.00
18436;BME280;9346;52.006;4.720;2023-04-24T03:27:37;99823.53;;;10.59;100.00
18436;BME280;9346;52.006;4.720;2023-04-24T03:30:07;99826.38;;;10.54;100.00
18436;BME280;9346;52.006;4.720;2023-04-24T03:32:34;99822.78;;;10.53;100.00
18436;BME280;9346;52.006;4.720;2023-04-24T03:35:01;99819.22;;;10.53;100.00
18436;BME280;9346;52.006;4.720;2023-04-24T03:37:28;99819.50;;;10.51;100.00
18436;BME280;9346;52.006;4.720;2023-04-24T03:39:57;99819.31;;;10.48;100.00
18436;BME280;9346;52.006;4.720;2023-04-24T03:42:24;99829.50;;;10.47;100.00
18436;BME280;9346;52.006;4.720;2023-04-24T03:44:51;99824.28;;;10.46;100.00
18436;BME280;9346;52.006;4.720;2023-04-24T03:47:18;99837.44;;;10.49;100.00
18436;BME280;9346;52.006;4.720;2023-04-24T03:49:45;99839.91;;;10.50;100.00
18436;BME280;9346;52.006;4.720;2023-04-24T03:52:12;99840.75;;;10.51;100.00
18436;BME280;9346;52.006;4.720;2023-04-24T03:54:39;99838.28;;;10.49;100.00
18436;BME280;9346;52.006;4.720;2023-04-24T03:57:08;99843.56;;;10.46;100.00
18436;BME280;9346;52.006;4.720;2023-04-24T03:59:35;99844.13;;;10.43;100.00
18436;BME280;9346;52.006;4.720;2023-04-24T04:02:05;99836.47;;;10.40;100.00
18436;BME280;9346;52.006;4.720;2023-04-24T04:04:32;99835.06;;;10.42;100.00
18436;BME280;9346;52.006;4.720;2023-04-24T04:06:59;99845.19;;;10.47;100.00
18436;BME280;9346;52.006;4.720;2023-04-24T04:09:28;99850.09;;;10.50;100.00
18436;BME280;9346;52.006;4.720;2023-04-24T04:11:55;99842.38;;;10.52;100.00
18436;BME280;9346;52.006;4.720;2023-04-24T04:14:23;99846.25;;;10.51;100.00
18436;BME280;9346;52.006;4.720;2023-04-24T04:16:51;99853.09;;;10.53;100.00
18436;BME280;9346;52.006;4.720;2023-04-24T04:19:19;99850.63;;;10.52;100.00
18436;BME280;9346;52.006;4.720;2023-04-24T04:21:46;99856.97;;;10.52;100.00
18436;BME280;9346;52.006;4.720;2023-04-24T04:24:17;99862.97;;;10.54;100.00
18436;BME280;9346;52.006;4.720;2023-04-24T04:26:46;99866.25;;;10.56;100.00
18436;BME280;9346;52.006;4.720;2023-04-24T04:29:13;99871.75;;;10.56;100.00
18436;BME280;9346;52.006;4.720;2023-04-24T04:31:44;99864.94;;;10.54;100.00
18436;BME280;9346;52.006;4.720;2023-04-24T04:34:12;99876.44;;;10.56;100.00
18436;BME280;9346;52.006;4.720;2023-04-24T04:36:39;99884.19;;;10.54;100.00
18436;BME280;9346;52.006;4.720;2023-04-24T04:39:06;99887.25;;;10.52;100.00
18436;BME280;9346;52.006;4.720;2023-04-24T04:41:33;99895.56;;;10.47;100.00
18436;BME280;9346;52.006;4.720;2023-04-24T04:44:01;99895.28;;;10.49;100.00
18436;BME280;9346;52.006;4.720;2023-04-24T04:46:30;99907.09;;;10.49;100.00
18436;BME280;9346;52.006;4.720;2023-04-24T04:48:59;99906.88;;;10.46;100.00
18436;BME280;9346;52.006;4.720;2023-04-24T04:51:26;99905.53;;;10.43;100.00
18436;BME280;9346;52.006;4.720;2023-04-24T04:53:53;99914.59;;;10.44;100.00
18436;BME280;9346;52.006;4.720;2023-04-24T04:56:21;99905.53;;;10.43;100.00
18436;BME280;9346;52.006;4.720;2023-04-24T04:58:47;99915.97;;;10.46;100.00
18436;BME280;9346;52.006;4.720;2023-04-24T05:01:14;99923.94;;;10.48;100.00
18436;BME280;9346;52.006;4.720;2023-04-24T05:03:42;99920.03;;;10.49;100.00
18436;BME280;9346;52.006;4.720;2023-04-24T05:06:13;99929.94;;;10.50;100.00
18436;BME280;9346;52.006;4.720;2023-04-24T05:08:43;99931.66;;;10.46;100.00
18436;BME280;9346;52.006;4.720;2023-04-24T05:11:14;99941.91;;;10.40;100.00
18436;BME280;9346;52.006;4.720;2023-04-24T05:13:41;99951.28;;;10.39;100.00
18436;BME280;9346;52.006;4.720;2023-04-24T05:16:08;99955.22;;;10.33;100.00
18436;BME280;9346;52.006;4.720;2023-04-24T05:19:02;99971.56;;;10.25;100.00
18436;BME280;9346;52.006;4.720;2023-04-24T05:21:30;99978.72;;;10.21;100.00
18436;BME280;9346;52.006;4.720;2023-04-24T05:23:57;99976.06;;;10.16;100.00
18436;BME280;9346;52.006;4.720;2023-04-24T05:26:24;99995.31;;;10.16;100.00
18436;BME280;9346;52.006;4.720;2023-04-24T05:28:51;100003.63;;;10.11;100.00
18436;BME280;9346;52.006;4.720;2023-04-24T05:31:18;100004.19;;;10.08;100.00
18436;BME280;9346;52.006;4.720;2023-04-24T05:33:45;100014.66;;;10.06;100.00
18436;BME280;9346;52.006;4.720;2023-04-24T05:36:13;100023.78;;;10.01;100.00
18436;BME280;9346;52.006;4.720;2023-04-24T05:38:43;100044.41;;;9.99;100.00
18436;BME280;9346;52.006;4.720;2023-04-24T05:41:10;100048.06;;;9.94;100.00
18436;BME280;9346;52.006;4.720;2023-04-24T05:43:37;100055.47;;;9.94;100.00
18436;BME280;9346;52.006;4.720;2023-04-24T05:46:04;100059.09;;;9.89;100.00
18436;BME280;9346;52.006;4.720;2023-04-24T05:48:31;100066.00;;;9.87;100.00
18436;BME280;9346;52.006;4.720;2023-04-24T05:50:58;100078.38;;;9.84;100.00
18436;BME280;9346;52.006;4.720;2023-04-24T05:53:27;100075.63;;;9.84;100.00
18436;BME280;9346;52.006;4.720;2023-04-24T05:55:54;100090.78;;;9.82;100.00
18436;BME280;9346;52.006;4.720;2023-04-24T05:58:24;100091.13;;;9.75;100.00
18436;BME280;9346;52.006;4.720;2023-04-24T06:00:51;100098.56;;;9.70;100.00
18436;BME280;9346;52.006;4.720;2023-04-24T06:03:18;100105.72;;;9.71;100.00
18436;BME280;9346;52.006;4.720;2023-04-24T06:05:45;100107.69;;;9.65;100.00
18436;BME280;9346;52.006;4.720;2023-04-24T06:08:12;100119.78;;;9.64;100.00
18436;BME280;9346;52.006;4.720;2023-04-24T06:10:41;100128.88;;;9.65;100.00
18436;BME280;9346;52.006;4.720;2023-04-24T06:13:07;100136.56;;;9.63;100.00
18436;BME280;9346;52.006;4.720;2023-04-24T06:15:35;100144.25;;;9.66;100.00
18436;BME280;9346;52.006;4.720;2023-04-24T06:18:02;100146.44;;;9.69;100.00
18436;BME280;9346;52.006;4.720;2023-04-24T06:20:29;100148.06;;;9.70;100.00
18436;BME280;9346;52.006;4.720;2023-04-24T06:22:56;100162.41;;;9.67;100.00
18436;BME280;9346;52.006;4.720;2023-04-24T06:25:24;100168.41;;;9.69;100.00
18436;BME280;9346;52.006;4.720;2023-04-24T06:27:53;100177.78;;;9.68;100.00
18436;BME280;9346;52.006;4.720;2023-04-24T06:30:20;100183.28;;;9.68;100.00
18436;BME280;9346;52.006;4.720;2023-04-24T06:32:47;100196.75;;;9.69;100.00
18436;BME280;9346;52.006;4.720;2023-04-24T06:35:13;100170.66;;;9.67;100.00
18436;BME280;9346;52.006;4.720;2023-04-24T06:37:41;100204.22;;;9.64;100.00
18436;BME280;9346;52.006;4.720;2023-04-24T06:40:09;100200.06;;;9.66;100.00
18436;BME280;9346;52.006;4.720;2023-04-24T06:42:36;100200.34;;;9.65;100.00
18436;BME280;9346;52.006;4.720;2023-04-24T06:45:06;100222.09;;;9.61;100.00
18436;BME280;9346;52.006;4.720;2023-04-24T06:47:35;100208.63;;;9.60;100.00
18436;BME280;9346;52.006;4.720;2023-04-24T06:50:03;100224.59;;;9.58;100.00
18436;BME280;9346;52.006;4.720;2023-04-24T06:52:30;100244.41;;;9.55;100.00
18436;BME280;9346;52.006;4.720;2023-04-24T06:55:00;100241.38;;;9.51;100.00
18436;BME280;9346;52.006;4.720;2023-04-24T06:57:27;100249.91;;;9.55;100.00
18436;BME280;9346;52.006;4.720;2023-04-24T06:59:55;100259.22;;;9.59;100.00
18436;BME280;9346;52.006;4.720;2023-04-24T07:02:26;100257.03;;;9.61;100.00
18436;BME280;9346;52.006;4.720;2023-04-24T07:04:53;100266.34;;;9.65;100.00
18436;BME280;9346;52.006;4.720;2023-04-24T07:07:22;100259.72;;;9.66;100.00
18436;BME280;9346;52.006;4.720;2023-04-24T07:09:49;100265.84;;;9.58;100.00
18436;BME280;9346;52.006;4.720;2023-04-24T07:12:16;100274.59;;;9.60;100.00
18436;BME280;9346;52.006;4.720;2023-04-24T07:14:45;100278.47;;;9.59;100.00
18436;BME280;9346;52.006;4.720;2023-04-24T07:17:13;100287.28;;;9.56;100.00
18436;BME280;9346;52.006;4.720;2023-04-24T07:19:42;100297.44;;;9.55;100.00
18436;BME280;9346;52.006;4.720;2023-04-24T07:22:09;100303.25;;;9.49;100.00
18436;BME280;9346;52.006;4.720;2023-04-24T07:24:36;100314.25;;;9.49;100.00
18436;BME280;9346;52.006;4.720;2023-04-24T07:27:04;100310.13;;;9.46;100.00
18436;BME280;9346;52.006;4.720;2023-04-24T07:29:31;100303.53;;;9.47;100.00
18436;BME280;9346;52.006;4.720;2023-04-24T07:31:58;100312.88;;;9.46;100.00
18436;BME280;9346;52.006;4.720;2023-04-24T07:34:25;100322.22;;;9.45;100.00
18436;BME280;9346;52.006;4.720;2023-04-24T07:36:53;100333.50;;;9.44;100.00
18436;BME280;9346;52.006;4.720;2023-04-24T07:39:20;100330.19;;;9.47;100.00
18436;BME280;9346;52.006;4.720;2023-04-24T07:41:47;100341.19;;;9.47;100.00
18436;BME280;9346;52.006;4.720;2023-04-24T07:44:16;100347.19;;;9.54;100.00
18436;BME280;9346;52.006;4.720;2023-04-24T07:46:43;100348.88;;;9.55;100.00
18436;BME280;9346;52.006;4.720;2023-04-24T07:49:10;100354.38;;;9.55;100.00
18436;BME280;9346;52.006;4.720;2023-04-24T07:51:38;100361.50;;;9.56;100.00
18436;BME280;9346;52.006;4.720;2023-04-24T07:54:07;100349.66;;;9.55;100.00
18436;BME280;9346;52.006;4.720;2023-04-24T07:56:35;100349.66;;;9.55;100.00
18436;BME280;9346;52.006;4.720;2023-04-24T07:59:04;100364.25;;;9.56;100.00
18436;BME280;9346;52.006;4.720;2023-04-24T08:01:31;100356.00;;;9.61;100.00
18436;BME280;9346;52.006;4.720;2023-04-24T08:03:58;100359.84;;;9.65;100.00
18436;BME280;9346;52.006;4.720;2023-04-24T08:06:25;100372.75;;;9.64;100.00
18436;BME280;9346;52.006;4.720;2023-04-24T08:08:55;100380.72;;;9.66;100.00
18436;BME280;9346;52.006;4.720;2023-04-24T08:11:24;100385.66;;;9.69;100.00
18436;BME280;9346;52.006;4.720;2023-04-24T08:13:54;100384.03;;;9.68;100.00
18436;BME280;9346;52.006;4.720;2023-04-24T08:16:21;100390.63;;;9.67;100.00
18436;BME280;9346;52.006;4.720;2023-04-24T08:18:49;100392.00;;;9.64;100.00
18436;BME280;9346;52.006;4.720;2023-04-24T08:21:16;100392.56;;;9.61;100.00
18436;BME280;9346;52.006;4.720;2023-04-24T08:23:44;100395.31;;;9.61;100.00
18436;BME280;9346;52.006;4.720;2023-04-24T08:26:14;100398.88;;;9.62;100.00
18436;BME280;9346;52.006;4.720;2023-04-24T08:28:45;100415.38;;;9.62;100.00
18436;BME280;9346;52.006;4.720;2023-04-24T08:31:12;100415.38;;;9.62;100.00
18436;BME280;9346;52.006;4.720;2023-04-24T08:33:39;100414.00;;;9.64;100.00
18436;BME280;9346;52.006;4.720;2023-04-24T08:36:07;100423.06;;;9.70;100.00
18436;BME280;9346;52.006;4.720;2023-04-24T08:38:34;100424.72;;;9.71;100.00
18436;BME280;9346;52.006;4.720;2023-04-24T08:41:04;100410.13;;;9.75;100.00
18436;BME280;9346;52.006;4.720;2023-04-24T08:43:34;100421.38;;;9.79;100.00
18436;BME280;9346;52.006;4.720;2023-04-24T08:46:08;100423.84;;;9.80;100.00
18436;BME280;9346;52.006;4.720;2023-04-24T08:48:38;100424.66;;;9.86;100.00
18436;BME280;9346;52.006;4.720;2023-04-24T08:51:07;100424.94;;;9.89;100.00
18436;BME280;9346;52.006;4.720;2023-04-24T08:53:35;100424.94;;;9.94;100.00
18436;BME280;9346;52.006;4.720;2023-04-24T08:56:02;100431.53;;;9.93;100.00
18436;BME280;9346;52.006;4.720;2023-04-24T08:58:31;100436.75;;;9.95;100.00
18436;BME280;9346;52.006;4.720;2023-04-24T09:00:58;100443.91;;;9.96;100.00
18436;BME280;9346;52.006;4.720;2023-04-24T09:03:29;100446.91;;;9.99;100.00
18436;BME280;9346;52.006;4.720;2023-04-24T09:06:31;100444.72;;;10.01;100.00
18436;BME280;9346;52.006;4.720;2023-04-24T09:09:00;100446.13;;;9.94;100.00
18436;BME280;9346;52.006;4.720;2023-04-24T09:11:30;100459.59;;;9.90;100.00
18436;BME280;9346;52.006;4.720;2023-04-24T09:13:57;100447.75;;;9.95;100.00
18436;BME280;9346;52.006;4.720;2023-04-24T09:16:26;100459.84;;;9.99;100.00
18436;BME280;9346;52.006;4.720;2023-04-24T09:18:55;100463.72;;;10.03;100.00
18436;BME280;9346;52.006;4.720;2023-04-24T09:21:22;100463.44;;;10.04;100.00
18436;BME280;9346;52.006;4.720;2023-04-24T09:24:01;100473.31;;;10.05;100.00
18436;BME280;9346;52.006;4.720;2023-04-24T09:26:30;100473.59;;;10.04;100.00
18436;BME280;9346;52.006;4.720;2023-04-24T09:28:59;100475.28;;;10.00;100.00
18436;BME280;9346;52.006;4.720;2023-04-24T09:31:29;100489.03;;;9.90;100.00
18436;BME280;9346;52.006;4.720;2023-04-24T09:33:57;100484.91;;;9.87;100.00
18436;BME280;9346;52.006;4.720;2023-04-24T09:36:29;100482.97;;;9.83;100.00
18436;BME280;9346;52.006;4.720;2023-04-24T09:39:00;100496.22;;;9.81;100.00
18436;BME280;9346;52.006;4.720;2023-04-24T09:41:28;100492.34;;;9.87;100.00
18436;BME280;9346;52.006;4.720;2023-04-24T09:43:55;100500.59;;;9.97;100.00
18436;BME280;9346;52.006;4.720;2023-04-24T09:46:29;100494.25;;;10.01;100.00
18436;BME280;9346;52.006;4.720;2023-04-24T09:49:07;100499.47;;;10.08;100.00
18436;BME280;9346;52.006;4.720;2023-04-24T09:51:36;100507.72;;;10.08;100.00
18436;BME280;9346;52.006;4.720;2023-04-24T09:54:15;100522.31;;;10.13;100.00
18436;BME280;9346;52.006;4.720;2023-04-24T09:56:43;100523.38;;;10.22;100.00
18436;BME280;9346;52.006;4.720;2023-04-24T09:59:12;100518.16;;;10.26;100.00
18436;BME280;9346;52.006;4.720;2023-04-24T10:01:39;100518.69;;;10.28;100.00
18436;BME280;9346;52.006;4.720;2023-04-24T10:04:15;100519.78;;;10.32;100.00
18436;BME280;9346;52.006;4.720;2023-04-24T10:06:44;100519.50;;;10.33;100.00
18436;BME280;9346;52.006;4.720;2023-04-24T10:09:13;100515.94;;;10.28;100.00
18436;BME280;9346;52.006;4.720;2023-04-24T10:11:42;100534.91;;;10.29;100.00
18436;BME280;9346;52.006;4.720;2023-04-24T10:14:12;100539.88;;;10.32;100.00
18436;BME280;9346;52.006;4.720;2023-04-24T10:16:42;100561.09;;;10.32;100.00
18436;BME280;9346;52.006;4.720;2023-04-24T10:19:10;100555.34;;;10.23;100.00
18436;BME280;9346;52.006;4.720;2023-04-24T10:21:40;100558.34;;;10.17;100.00
18436;BME280;9346;52.006;4.720;2023-04-24T10:24:14;100566.91;;;10.10;100.00
18436;BME280;9346;52.006;4.720;2023-04-24T10:26:44;100569.38;;;9.97;100.00
18436;BME280;9346;52.006;4.720;2023-04-24T10:29:14;100566.34;;;9.93;100.00
18436;BME280;9346;52.006;4.720;2023-04-24T10:31:42;100577.06;;;10.00;100.00
18436;BME280;9346;52.006;4.720;2023-04-24T10:34:11;100567.16;;;10.04;100.00
18436;BME280;9346;52.006;4.720;2023-04-24T10:36:40;100569.94;;;10.09;100.00
18436;BME280;9346;52.006;4.720;2023-04-24T10:39:13;100560.03;;;10.13;100.00
18436;BME280;9346;52.006;4.720;2023-04-24T10:41:42;100569.09;;;10.13;100.00
18436;BME280;9346;52.006;4.720;2023-04-24T10:44:11;100574.88;;;10.22;100.00
18436;BME280;9346;52.006;4.720;2023-04-24T10:46:42;100562.44;;;10.29;100.00
18436;BME280;9346;52.006;4.720;2023-04-24T10:49:09;100569.59;;;10.40;100.00
18436;BME280;9346;52.006;4.720;2023-04-24T10:51:45;100575.91;;;10.51;100.00
18436;BME280;9346;52.006;4.720;2023-04-24T10:54:25;100576.69;;;10.61;100.00
18436;BME280;9346;52.006;4.720;2023-04-24T10:56:56;100583.25;;;10.70;100.00
18436;BME280;9346;52.006;4.720;2023-04-24T10:59:41;100582.69;;;10.73;100.00
18436;BME280;9346;52.006;4.720;2023-04-24T11:02:08;100577.47;;;10.77;100.00
18436;BME280;9346;52.006;4.720;2023-04-24T11:04:35;100580.50;;;10.70;100.00
18436;BME280;9346;52.006;4.720;2023-04-24T11:07:02;100599.53;;;10.67;100.00
18436;BME280;9346;52.006;4.720;2023-04-24T11:09:34;100607.81;;;10.62;100.00
18436;BME280;9346;52.006;4.720;2023-04-24T11:12:03;100610.00;;;10.60;100.00
18436;BME280;9346;52.006;4.720;2023-04-24T11:15:02;100620.50;;;10.58;100.00
18436;BME280;9346;52.006;4.720;2023-04-24T11:17:32;100618.28;;;10.50;100.00
18436;BME280;9346;52.006;4.720;2023-04-24T11:20:03;100614.72;;;10.49;100.00
18436;BME280;9346;52.006;4.720;2023-04-24T11:22:34;100620.50;;;10.58;100.00
18436;BME280;9346;52.006;4.720;2023-04-24T11:25:05;100606.41;;;10.64;100.00
18436;BME280;9346;52.006;4.720;2023-04-24T11:27:39;100606.13;;;10.71;100.00
18436;BME280;9346;52.006;4.720;2023-04-24T11:30:07;100618.19;;;10.85;100.00
18436;BME280;9346;52.006;4.720;2023-04-24T11:32:36;100614.88;;;10.93;100.00
18436;BME280;9346;52.006;4.720;2023-04-24T11:35:09;100621.19;;;10.98;100.00
18436;BME280;9346;52.006;4.720;2023-04-24T11:37:42;100628.00;;;11.11;100.00
18436;BME280;9346;52.006;4.720;2023-04-24T11:40:14;100623.00;;;11.23;100.00
18436;BME280;9346;52.006;4.720;2023-04-24T11:42:42;100628.50;;;11.28;100.00
18436;BME280;9346;52.006;4.720;2023-04-24T11:45:11;100625.13;;;11.31;100.00
18436;BME280;9346;52.006;4.720;2023-04-24T11:47:38;100634.47;;;11.40;100.00
18436;BME280;9346;52.006;4.720;2023-04-24T11:50:08;100638.56;;;11.48;100.00
18436;BME280;9346;52.006;4.720;2023-04-24T11:52:37;100628.94;;;11.45;100.00
18436;BME280;9346;52.006;4.720;2023-04-24T11:55:07;100639.13;;;11.45;100.00
18436;BME280;9346;52.006;4.720;2023-04-24T11:57:36;100649.09;;;11.41;100.00
18436;BME280;9346;52.006;4.720;2023-04-24T12:00:04;100655.94;;;11.48;100.00
18436;BME280;9346;52.006;4.720;2023-04-24T12:02:33;100657.53;;;11.59;100.00
18436;BME280;9346;52.006;4.720;2023-04-24T12:05:00;100658.38;;;11.60;100.00
18436;BME280;9346;52.006;4.720;2023-04-24T12:07:27;100659.16;;;11.60;100.00
18436;BME280;9346;52.006;4.720;2023-04-24T12:09:56;100660.00;;;11.61;100.00
18436;BME280;9346;52.006;4.720;2023-04-24T12:12:25;100670.22;;;11.65;100.00
18436;BME280;9346;52.006;4.720;2023-04-24T12:14:56;100662.16;;;11.74;100.00
18436;BME280;9346;52.006;4.720;2023-04-24T12:17:26;100674.31;;;11.73;100.00
18436;BME280;9346;52.006;4.720;2023-04-24T12:20:00;100671.78;;;11.76;100.00
18436;BME280;9346;52.006;4.720;2023-04-24T12:22:28;100677.84;;;11.78;100.00
18436;BME280;9346;52.006;4.720;2023-04-24T12:24:57;100686.34;;;11.87;100.00
18436;BME280;9346;52.006;4.720;2023-04-24T12:27:26;100675.88;;;11.84;100.00
18436;BME280;9346;52.006;4.720;2023-04-24T12:29:56;100680.03;;;11.86;100.00
18436;BME280;9346;52.006;4.720;2023-04-24T12:32:24;100689.69;;;11.84;100.00
18436;BME280;9346;52.006;4.720;2023-04-24T12:34:52;100697.19;;;11.78;100.00
18436;BME280;9346;52.006;4.720;2023-04-24T12:37:20;100699.94;;;11.73;100.00
18436;BME280;9346;52.006;4.720;2023-04-24T12:40:10;100702.19;;;11.66;100.00
18436;BME280;9346;52.006;4.720;2023-04-24T12:42:42;100701.41;;;11.66;100.00
18436;BME280;9346;52.006;4.720;2023-04-24T12:45:13;100711.81;;;11.74;100.00
18436;BME280;9346;52.006;4.720;2023-04-24T12:47:43;100708.50;;;11.77;100.00
18436;BME280;9346;52.006;4.720;2023-04-24T12:50:11;100708.47;;;11.82;100.00
18436;BME280;9346;52.006;4.720;2023-04-24T12:52:38;100711.53;;;11.75;100.00
18436;BME280;9346;52.006;4.720;2023-04-24T12:55:08;100704.13;;;11.71;100.00
18436;BME280;9346;52.006;4.720;2023-04-24T12:57:37;100715.47;;;11.64;100.00
18436;BME280;9346;52.006;4.720;2023-04-24T13:00:05;100702.50;;;11.60;100.00
18436;BME280;9346;52.006;4.720;2023-04-24T13:02:35;100721.53;;;11.61;100.00
18436;BME280;9346;52.006;4.720;2023-04-24T13:05:02;100716.00;;;11.66;100.00